Time;durP1;ratioP1;P1;durP2;ratioP2;P2;SDS_P1;SDS_P2;PMS_P1;PMS_P2;Temp;Humidity;BMP_temperature;BMP_pressure;BME280_temperature;BME280_humidity;BME280_pressure;Samples;Min_cycle;Max_cycle;Signal;HPM_P1;HPM_P2
2021/10/09 00:00:29;;;;;;;4.28;2.65;;;14.90;99.90;;;;;;2619109;54;20071;-74
2021/10/09 00:02:55;;;;;;;5.97;2.20;;;14.80;99.90;;;;;;2618529;47;20053;-73
2021/10/09 00:05:21;;;;;;;4.68;2.63;;;14.90;99.90;;;;;;2619619;39;20427;-74
2021/10/09 00:07:47;;;;;;;4.30;2.80;;;14.90;99.90;;;;;;2618980;54;20023;-76
2021/10/09 00:10:24;;;;;;;3.15;2.08;;;14.90;99.90;;;;;;2618415;47;20530;-74
2021/10/09 00:12:50;;;;;;;6.25;2.58;;;14.90;99.90;;;;;;2618962;54;20022;-73
2021/10/09 00:15:19;;;;;;;4.07;2.38;;;14.80;99.90;;;;;;2619042;54;20019;-75
2021/10/09 00:17:45;;;;;;;2.85;2.42;;;14.80;99.90;;;;;;2618403;47;20029;-74
2021/10/09 00:20:11;;;;;;;5.63;1.95;;;14.70;99.90;;;;;;2618209;54;20030;-74
2021/10/09 00:22:38;;;;;;;4.63;2.60;;;14.80;99.90;;;;;;2618530;39;20474;-75
2021/10/09 00:25:05;;;;;;;3.65;2.63;;;14.80;99.90;;;;;;2618299;47;20121;-72
2021/10/09 00:27:31;;;;;;;3.63;2.10;;;14.80;99.90;;;;;;2618947;54;20560;-74
2021/10/09 00:29:57;;;;;;;4.88;2.35;;;14.70;99.90;;;;;;2620127;39;20638;-74
2021/10/09 00:32:25;;;;;;;4.00;2.17;;;14.60;99.90;;;;;;2619079;54;20030;-73
2021/10/09 00:34:51;;;;;;;5.05;2.95;;;14.60;99.90;;;;;;2618974;54;20023;-72
2021/10/09 00:37:17;;;;;;;4.65;1.90;;;14.50;99.90;;;;;;2618886;54;20618;-75
2021/10/09 00:39:43;;;;;;;9.20;2.63;;;14.30;99.90;;;;;;2618978;54;20019;-72
2021/10/09 00:42:10;;;;;;;4.43;2.58;;;14.50;99.90;;;;;;2619274;39;20426;-72
2021/10/09 00:44:39;;;;;;;3.83;2.28;;;14.60;99.90;;;;;;2618234;47;20026;-74
2021/10/09 00:47:05;;;;;;;3.53;2.30;;;14.60;99.90;;;;;;2618888;54;20072;-72
2021/10/09 00:49:34;;;;;;;2.88;2.00;;;14.70;99.90;;;;;;2618829;54;20529;-75
2021/10/09 00:52:04;;;;;;;5.35;2.28;;;14.60;99.90;;;;;;2619322;39;20409;-75
2021/10/09 00:54:32;;;;;;;5.35;3.03;;;14.70;99.90;;;;;;2618868;54;20038;-73
2021/10/09 00:56:59;;;;;;;3.33;2.20;;;14.60;99.90;;;;;;2618275;47;20036;-74
2021/10/09 00:59:26;;;;;;;3.22;2.45;;;14.50;99.90;;;;;;2618784;54;20098;-74
2021/10/09 01:01:53;;;;;;;5.50;2.28;;;14.30;99.90;;;;;;2618339;47;20026;-75
2021/10/09 01:04:19;;;;;;;4.47;3.08;;;14.30;99.90;;;;;;2618259;46;20613;-72
2021/10/09 01:06:48;;;;;;;4.53;2.88;;;14.20;99.90;;;;;;2619304;39;20510;-75
2021/10/09 01:09:14;;;;;;;5.95;3.05;;;14.30;99.90;;;;;;2618758;54;20015;-74
2021/10/09 01:11:40;;;;;;;6.28;3.38;;;14.30;99.90;;;;;;2618870;54;20014;-74
2021/10/09 01:14:07;;;;;;;6.95;3.20;;;14.30;99.90;;;;;;2618910;54;20538;-72
2021/10/09 01:16:33;;;;;;;3.55;2.70;;;14.40;99.90;;;;;;2618450;46;20030;-70
2021/10/09 01:18:59;;;;;;;3.55;2.85;;;14.50;99.90;;;;;;2618833;54;20526;-75
2021/10/09 01:21:37;;;;;;;5.90;2.60;;;14.60;99.90;;;;;;2618467;54;20114;-75
2021/10/09 01:24:03;;;;;;;6.35;3.35;;;14.50;99.90;;;;;;2618243;47;20030;-74
2021/10/09 01:26:29;;;;;;;4.35;2.70;;;14.50;99.90;;;;;;2618849;54;20026;-72
2021/10/09 01:28:55;;;;;;;5.18;2.58;;;14.50;99.90;;;;;;2618154;46;20138;-74
2021/10/09 01:31:22;;;;;;;4.38;2.33;;;14.50;99.90;;;;;;2618820;54;20560;-76
2021/10/09 01:33:48;;;;;;;6.70;2.70;;;14.50;99.90;;;;;;2618677;54;20029;-74
2021/10/09 01:36:14;;;;;;;5.07;2.47;;;14.50;99.90;;;;;;2618691;54;20114;-74
2021/10/09 01:38:48;;;;;;;5.50;2.45;;;14.60;99.90;;;;;;2618970;54;20023;-76
2021/10/09 01:41:15;;;;;;;3.50;2.42;;;14.50;99.90;;;;;;2618333;47;20030;-73
2021/10/09 01:43:41;;;;;;;3.63;2.00;;;14.60;99.90;;;;;;2619147;39;20423;-73
2021/10/09 01:46:07;;;;;;;7.85;2.60;;;14.50;99.90;;;;;;2619201;39;20436;-72
2021/10/09 01:48:35;;;;;;;4.25;2.67;;;14.50;99.90;;;;;;2618381;46;20030;-74
2021/10/09 01:51:02;;;;;;;5.22;2.50;;;14.40;99.90;;;;;;2618121;47;20121;-73
2021/10/09 01:53:29;;;;;;;5.00;2.85;;;14.40;99.90;;;;;;2618664;54;20114;-73
2021/10/09 01:55:58;;;;;;;6.47;2.42;;;14.30;99.90;;;;;;2618614;54;20019;-72
2021/10/09 01:58:25;;;;;;;5.75;2.40;;;14.40;99.90;;;;;;2617986;47;20118;-74
2021/10/09 02:00:51;;;;;;;3.22;2.25;;;14.50;99.90;;;;;;2618711;54;20019;-78
2021/10/09 02:03:19;;;;;;;4.57;2.40;;;14.50;99.90;;;;;;2618745;54;20027;-75
2021/10/09 02:05:46;;;;;;;3.95;2.63;;;14.50;99.90;;;;;;2619261;39;20446;-75
2021/10/09 02:08:13;;;;;;;3.60;2.50;;;14.40;99.90;;;;;;2618653;54;20046;-75
2021/10/09 02:10:55;;;;;;;7.45;2.10;;;14.50;99.90;;;;;;2618606;54;20027;-74
2021/10/09 02:13:29;;;;;;;6.30;2.25;;;14.60;99.90;;;;;;2618795;54;20033;-73
2021/10/09 02:26:23;;;;;;;3.20;2.42;;;14.20;99.90;;;;;;2618700;54;20042;-74
2021/10/09 02:28:51;;;;;;;2.35;1.88;;;14.10;99.90;;;;;;2618526;54;20034;-73
2021/10/09 02:31:17;;;;;;;3.38;2.20;;;14.20;99.90;;;;;;2619000;39;20422;-74
2021/10/09 02:33:43;;;;;;;4.63;2.60;;;14.30;99.90;;;;;;2618687;54;20026;-74
2021/10/09 02:36:09;;;;;;;4.55;2.60;;;14.40;99.90;;;;;;2617772;47;20070;-74
2021/10/09 02:38:35;;;;;;;2.95;2.03;;;14.50;99.90;;;;;;2618557;54;20022;-75
2021/10/09 02:41:02;;;;;;;6.43;2.53;;;14.50;99.90;;;;;;2618972;39;20490;-72
2021/10/09 02:43:28;;;;;;;5.78;2.05;;;14.50;99.90;;;;;;2618910;39;20494;-73
2021/10/09 02:45:56;;;;;;;4.38;2.42;;;14.50;99.90;;;;;;2618449;54;20026;-73
2021/10/09 02:48:23;;;;;;;5.72;2.67;;;14.50;99.90;;;;;;2619282;54;20560;-75
2021/10/09 02:50:49;;;;;;;3.22;2.30;;;14.50;99.90;;;;;;2618675;46;20049;-74
2021/10/09 02:53:15;;;;;;;5.07;2.55;;;14.30;99.90;;;;;;2619395;54;20030;-73
2021/10/09 02:55:41;;;;;;;6.13;3.08;;;14.30;99.90;;;;;;2618661;47;20026;-74
2021/10/09 02:58:07;;;;;;;6.13;2.28;;;14.30;99.90;;;;;;2618854;46;20034;-71
2021/10/09 03:00:33;;;;;;;5.80;2.38;;;14.30;99.90;;;;;;2619263;54;20023;-74
2021/10/09 03:03:02;;;;;;;3.40;2.17;;;14.20;99.90;;;;;;2619289;54;20033;-71
2021/10/09 03:05:28;;;;;;;3.17;2.40;;;14.30;99.90;;;;;;2619152;54;20515;-73
2021/10/09 03:07:54;;;;;;;2.72;2.10;;;14.40;99.90;;;;;;2619161;54;20031;-74
2021/10/09 03:10:21;;;;;;;5.28;2.58;;;14.40;99.90;;;;;;2619105;54;20038;-75
2021/10/09 03:12:47;;;;;;;3.83;2.00;;;14.40;99.90;;;;;;2619113;54;20022;-74
2021/10/09 03:15:14;;;;;;;4.53;2.30;;;14.40;99.90;;;;;;2618449;47;20042;-71
2021/10/09 03:17:40;;;;;;;5.38;2.05;;;14.40;99.90;;;;;;2619123;54;20126;-74
2021/10/09 03:20:11;;;;;;;5.65;2.78;;;14.30;99.90;;;;;;2618612;46;20530;-73
2021/10/09 03:22:37;;;;;;;4.07;3.03;;;14.30;99.90;;;;;;2618917;54;20026;-76
2021/10/09 03:25:05;;;;;;;2.83;2.28;;;14.30;99.90;;;;;;2618600;46;20053;-74
2021/10/09 03:27:31;;;;;;;3.58;1.90;;;14.20;99.90;;;;;;2618930;54;20510;-72
2021/10/09 03:29:58;;;;;;;5.38;2.75;;;14.10;99.90;;;;;;2619176;54;20019;-74
2021/10/09 03:32:24;;;;;;;4.95;2.75;;;14.10;99.90;;;;;;2619282;54;20022;-74
2021/10/09 03:34:50;;;;;;;4.55;2.30;;;14.00;99.90;;;;;;2618640;46;20053;-72
2021/10/09 03:37:19;;;;;;;2.88;2.15;;;14.10;99.90;;;;;;2619120;54;20027;-73
2021/10/09 03:39:47;;;;;;;13.02;3.55;;;14.10;99.90;;;;;;2619128;54;20073;-74
2021/10/09 03:42:29;;;;;;;5.88;2.47;;;14.10;99.90;;;;;;2619057;54;20027;-74
2021/10/09 03:45:00;;;;;;;7.32;2.88;;;14.20;99.90;;;;;;2617966;46;20023;-75
2021/10/09 03:50:05;;;;;;;15.43;2.95;;;14.10;99.90;;;;;;2617816;54;20031;-73
2021/10/09 03:55:00;;;;;;;5.13;3.03;;;14.20;99.90;;;;;;2617714;54;20026;-73
2021/10/09 03:57:27;;;;;;;3.35;2.17;;;14.30;99.90;;;;;;2617887;54;20105;-74
2021/10/09 03:59:53;;;;;;;4.05;2.63;;;14.30;99.90;;;;;;2617841;54;20542;-74
2021/10/09 04:02:19;;;;;;;3.65;2.80;;;14.30;99.90;;;;;;2617791;54;20027;-74
2021/10/09 04:04:45;;;;;;;4.72;2.08;;;14.30;99.90;;;;;;2617675;54;20046;-73
2021/10/09 04:07:11;;;;;;;5.05;3.05;;;14.30;99.90;;;;;;2617737;54;20011;-73
2021/10/09 04:09:39;;;;;;;4.40;2.33;;;14.30;99.90;;;;;;2617705;47;20059;-72
2021/10/09 04:12:06;;;;;;;3.95;2.45;;;14.30;99.90;;;;;;2617586;47;20125;-74
2021/10/09 04:14:32;;;;;;;3.80;2.75;;;14.20;99.90;;;;;;2617674;54;20014;-72
2021/10/09 04:16:58;;;;;;;2.22;1.88;;;14.10;99.90;;;;;;2618871;54;20503;-73
2021/10/09 04:19:24;;;;;;;5.10;3.03;;;14.20;99.90;;;;;;2618425;47;20050;-72
2021/10/09 04:21:50;;;;;;;6.13;3.00;;;14.20;99.90;;;;;;2618649;54;20514;-75
2021/10/09 04:24:18;;;;;;;4.72;2.88;;;14.10;99.90;;;;;;2619294;54;20056;-73
2021/10/09 04:26:47;;;;;;;13.23;2.78;;;14.00;99.90;;;;;;2619032;54;20081;-76
2021/10/09 04:29:13;;;;;;;4.60;2.45;;;14.10;99.90;;;;;;2618830;54;20031;-74
2021/10/09 04:31:39;;;;;;;4.45;2.45;;;14.20;99.90;;;;;;2618965;54;20110;-74
2021/10/09 04:34:05;;;;;;;5.05;2.40;;;14.10;99.90;;;;;;2618911;54;20038;-74
2021/10/09 04:36:32;;;;;;;5.75;2.78;;;14.20;99.90;;;;;;2619720;54;20150;-74
2021/10/09 04:38:58;;;;;;;7.15;2.78;;;14.10;99.90;;;;;;2618413;46;20130;-71
2021/10/09 04:41:24;;;;;;;5.18;2.60;;;14.00;99.90;;;;;;2618929;39;20403;-73
2021/10/09 04:43:53;;;;;;;4.78;2.47;;;14.00;99.90;;;;;;2618733;54;20062;-72
2021/10/09 04:46:19;;;;;;;6.13;2.92;;;13.90;99.90;;;;;;2618930;54;20023;-74
2021/10/09 04:48:45;;;;;;;5.10;2.80;;;13.80;99.90;;;;;;2618347;47;20109;-72
2021/10/09 04:51:11;;;;;;;3.80;2.20;;;13.70;99.90;;;;;;2618957;54;20110;-73
2021/10/09 04:53:37;;;;;;;3.58;2.50;;;13.70;99.90;;;;;;2618912;54;20049;-72
2021/10/09 04:56:03;;;;;;;5.32;2.83;;;13.80;99.90;;;;;;2618526;46;20550;-76
2021/10/09 04:58:29;;;;;;;7.55;3.22;;;13.70;99.90;;;;;;2618998;54;20057;-75
2021/10/09 05:00:58;;;;;;;3.72;2.65;;;13.60;99.90;;;;;;2619026;54;20023;-74
2021/10/09 05:03:24;;;;;;;6.32;3.10;;;13.60;99.90;;;;;;2618982;54;20027;-73
2021/10/09 05:05:50;;;;;;;6.43;3.33;;;13.70;99.90;;;;;;2618902;54;20053;-73
2021/10/09 05:08:16;;;;;;;4.75;3.13;;;13.70;99.90;;;;;;2618140;46;20029;-74
2021/10/09 05:10:44;;;;;;;4.95;2.83;;;13.70;99.90;;;;;;2618965;31;20535;-75
2021/10/09 05:13:10;;;;;;;5.50;2.80;;;13.70;99.90;;;;;;2618999;54;20026;-76
2021/10/09 05:15:40;;;;;;;7.03;3.20;;;13.70;99.90;;;;;;2620106;39;20422;-75
2021/10/09 05:18:10;;;;;;;4.75;3.03;;;13.70;99.90;;;;;;2619372;54;20118;-74
2021/10/09 05:20:37;;;;;;;5.80;3.35;;;13.70;99.90;;;;;;2619891;54;20029;-75
2021/10/09 05:23:04;;;;;;;8.07;3.53;;;13.60;99.90;;;;;;2618096;47;20022;-76
2021/10/09 05:25:32;;;;;;;5.30;2.85;;;13.60;99.90;;;;;;2618407;46;20037;-74
2021/10/09 05:28:04;;;;;;;5.20;2.85;;;13.60;99.90;;;;;;2619166;54;20014;-75
2021/10/09 05:30:30;;;;;;;5.10;2.85;;;13.60;99.90;;;;;;2618797;47;20045;-74
2021/10/09 05:33:13;;;;;;;6.57;3.03;;;13.70;99.90;;;;;;2619311;54;20106;-74
2021/10/09 05:35:42;;;;;;;4.13;2.92;;;13.70;99.90;;;;;;2618333;47;20026;-74
2021/10/09 05:38:08;;;;;;;4.25;2.75;;;13.70;99.90;;;;;;2618767;54;20018;-74
2021/10/09 05:40:34;;;;;;;8.15;3.33;;;13.60;99.90;;;;;;2618985;54;20530;-74
2021/10/09 05:43:01;;;;;;;5.47;2.83;;;13.60;99.90;;;;;;2618277;54;20038;-74
2021/10/09 05:45:27;;;;;;;4.13;2.88;;;13.70;99.90;;;;;;2618868;54;20518;-76
2021/10/09 05:47:53;;;;;;;7.03;3.00;;;13.70;99.90;;;;;;2618221;47;20027;-76
2021/10/09 05:50:23;;;;;;;6.82;3.13;;;13.70;99.90;;;;;;2618604;39;20404;-72
2021/10/09 05:53:11;;;;;;;8.20;3.55;;;13.70;99.90;;;;;;2618670;54;20043;-76
2021/10/09 05:55:48;;;;;;;7.07;3.00;;;13.70;99.90;;;;;;2618716;54;20022;-75
2021/10/09 07:00:48;;;;;;;8.10;3.03;;;14.00;99.90;;;;;;2619729;54;20053;-75
2021/10/09 07:03:16;;;;;;;7.07;3.35;;;14.00;99.90;;;;;;2619476;54;20114;-74
2021/10/09 07:05:42;;;;;;;5.47;3.60;;;14.00;99.90;;;;;;2619281;54;20028;-74
2021/10/09 07:08:09;;;;;;;4.43;3.17;;;14.10;99.90;;;;;;2619316;54;20041;-74
2021/10/09 07:10:35;;;;;;;6.45;3.30;;;14.30;99.90;;;;;;2619238;54;20053;-71
